Time;durP1;ratioP1;P1;durP2;ratioP2;P2;SDS_P1;SDS_P2;PMS_P1;PMS_P2;Temp;Humidity;BMP_temperature;BMP_pressure;BME280_temperature;BME280_humidity;BME280_pressure;Samples;Min_cycle;Max_cycle;Signal;HPM_P1;HPM_P2
2020/12/29 00:01:32;;;;;;;;;;;;;;;19.31;62.52;99894.53;5034457;28;1346;-57
2020/12/29 00:03:57;;;;;;;;;;;;;;;19.34;62.09;99891.53;5041744;28;1478;-57
2020/12/29 00:06:23;;;;;;;;;;;;;;;19.31;62.02;99881.13;5054410;28;1898;-57
2020/12/29 00:08:48;;;;;;;;;;;;;;;19.34;62.06;99902.25;5054317;28;904;-56
2020/12/29 00:11:13;;;;;;;;;;;;;;;19.31;62.11;99894.53;5052049;28;1481;-56
2020/12/29 00:13:38;;;;;;;;;;;;;;;19.31;61.94;99885.66;5047934;28;1375;-56
2020/12/29 00:16:04;;;;;;;;;;;;;;;19.34;61.80;99899.59;5034497;28;843;-56
2020/12/29 00:18:29;;;;;;;;;;;;;;;19.34;61.67;99899.59;5034406;28;1494;-57
2020/12/29 00:20:54;;;;;;;;;;;;;;;19.33;61.53;99900.56;5034621;28;895;-56
2020/12/29 00:23:20;;;;;;;;;;;;;;;19.30;61.98;99894.69;5035433;28;1407;-56
2020/12/29 00:25:45;;;;;;;;;;;;;;;19.29;61.39;99909.94;5054508;28;1906;-56
2020/12/29 00:28:10;;;;;;;;;;;;;;;19.28;61.35;99898.38;5054589;28;780;-56
2020/12/29 00:30:36;;;;;;;;;;;;;;;19.29;61.47;99904.56;5054507;28;782;-56
2020/12/29 00:33:01;;;;;;;;;;;;;;;19.30;61.36;99908.94;5054275;28;1071;-56
2020/12/29 00:35:27;;;;;;;;;;;;;;;19.31;61.17;99915.97;5035858;28;1504;-57
2020/12/29 00:37:52;;;;;;;;;;;;;;;19.30;60.92;99916.13;5034554;28;1434;-57
2020/12/29 00:40:17;;;;;;;;;;;;;;;19.31;60.67;99931.22;5034481;28;1493;-56
2020/12/29 00:42:43;;;;;;;;;;;;;;;19.28;61.12;99919.81;5033735;28;1196;-56
2020/12/29 00:45:08;;;;;;;;;;;;;;;19.34;60.67;99929.06;5034929;28;1294;-57
2020/12/29 00:47:33;;;;;;;;;;;;;;;19.33;60.44;99930.06;5037980;28;1885;-57
2020/12/29 00:50:00;;;;;;;;;;;;;;;19.37;60.84;99920.69;5038147;28;821;-57
2020/12/29 00:52:25;;;;;;;;;;;;;;;19.42;60.58;99910.34;5038197;28;828;-55
2020/12/29 00:54:50;;;;;;;;;;;;;;;19.45;60.61;99918.06;5050669;28;1489;-57
2020/12/29 00:57:16;;;;;;;;;;;;;;;19.44;60.50;99904.84;5057745;28;873;-56
2020/12/29 00:59:41;;;;;;;;;;;;;;;19.42;60.69;99899.63;5043764;28;1418;-56
2020/12/29 01:02:07;;;;;;;;;;;;;;;19.38;60.48;99887.53;5037869;28;1436;-57
2020/12/29 01:04:32;;;;;;;;;;;;;;;19.42;60.36;99878.19;5047711;28;1470;-58
2020/12/29 01:07:00;;;;;;;;;;;;;;;19.37;60.47;99869.75;5057604;28;1960;-57
2020/12/29 01:09:26;;;;;;;;;;;;;;;19.38;60.05;99858.03;5044295;28;1211;-56
2020/12/29 01:11:51;;;;;;;;;;;;;;;19.38;60.14;99859.91;5037973;28;1486;-57
2020/12/29 01:14:16;;;;;;;;;;;;;;;19.38;59.91;99855.38;5037095;28;1418;-56
2020/12/29 01:16:44;;;;;;;;;;;;;;;19.38;59.89;99862.56;5037844;28;826;-57
2020/12/29 01:19:10;;;;;;;;;;;;;;;19.36;60.04;99841.28;5037686;28;872;-57
2020/12/29 01:21:35;;;;;;;;;;;;;;;19.38;59.85;99838.44;5044622;28;1447;-56
2020/12/29 01:24:01;;;;;;;;;;;;;;;19.35;59.88;99849.47;5057265;28;868;-56
2020/12/29 01:26:26;;;;;;;;;;;;;;;19.37;59.93;99839.44;5056065;28;1914;-57
2020/12/29 01:28:52;;;;;;;;;;;;;;;19.32;59.83;99833.69;5056994;28;1457;-56
2020/12/29 01:31:27;;;;;;;;;;;;;;;19.32;59.97;99829.19;5055520;28;1028;-56
2020/12/29 01:33:53;;;;;;;;;;;;;;;19.32;59.79;99842.59;5051962;28;1232;-56
2020/12/29 01:36:18;;;;;;;;;;;;;;;19.31;59.67;99822.16;5057064;28;1211;-57
2020/12/29 01:38:44;;;;;;;;;;;;;;;19.30;59.88;99808.91;5056073;28;1232;-57
2020/12/29 01:41:09;;;;;;;;;;;;;;;19.28;59.86;99801.03;5056828;28;1192;-57
2020/12/29 01:43:34;;;;;;;;;;;;;;;19.29;59.47;99808.06;5056425;28;1251;-56
2020/12/29 01:46:00;;;;;;;;;;;;;;;19.25;59.49;99804.84;5056311;28;1862;-56
2020/12/29 01:48:26;;;;;;;;;;;;;;;19.26;59.75;99813.75;5056417;28;1220;-56
2020/12/29 01:50:51;;;;;;;;;;;;;;;19.28;59.40;99822.47;5038846;28;1310;-57
2020/12/29 01:53:16;;;;;;;;;;;;;;;19.29;59.34;99832.19;5056386;28;1385;-56
2020/12/29 01:55:42;;;;;;;;;;;;;;;19.28;59.25;99827.84;5051679;28;1587;-56
2020/12/29 01:58:07;;;;;;;;;;;;;;;19.31;59.21;99832.88;5055284;28;1298;-56
2020/12/29 02:00:33;;;;;;;;;;;;;;;19.32;59.10;99829.19;5054873;28;1294;-57
2020/12/29 02:02:58;;;;;;;;;;;;;;;19.33;59.25;99830.88;5055775;28;1380;-57
2020/12/29 02:05:25;;;;;;;;;;;;;;;19.29;59.07;99829.50;5055561;28;1952;-56
2020/12/29 02:07:52;;;;;;;;;;;;;;;19.29;59.00;99832.19;5056059;28;1338;-57
2020/12/29 02:10:17;;;;;;;;;;;;;;;19.30;58.89;99846.44;5053406;28;1255;-56
2020/12/29 02:12:42;;;;;;;;;;;;;;;19.27;59.05;99848.44;5055628;28;1287;-56
2020/12/29 02:15:08;;;;;;;;;;;;;;;19.25;58.90;99845.06;5055114;28;1258;-56
2020/12/29 02:17:33;;;;;;;;;;;;;;;19.22;59.09;99833.84;5055146;28;1330;-56
2020/12/29 02:19:59;;;;;;;;;;;;;;;19.21;58.94;99837.50;5055875;28;1270;-56
2020/12/29 02:22:25;;;;;;;;;;;;;;;19.26;58.92;99836.03;5054785;28;1499;-56
2020/12/29 02:24:51;;;;;;;;;;;;;;;19.30;58.58;99843.75;5055674;28;1373;-57
2020/12/29 02:27:18;;;;;;;;;;;;;;;19.29;58.97;99856.31;5055373;28;1921;-56
2020/12/29 02:29:43;;;;;;;;;;;;;;;19.26;58.81;99852.13;5055925;28;1298;-56
2020/12/29 02:32:08;;;;;;;;;;;;;;;19.26;58.45;99840.56;5055424;28;1231;-56
2020/12/29 02:34:36;;;;;;;;;;;;;;;19.24;58.87;99837.22;5055747;28;1211;-56
2020/12/29 02:37:02;;;;;;;;;;;;;;;19.22;58.48;99833.84;5055529;28;1275;-56
2020/12/29 02:39:28;;;;;;;;;;;;;;;19.26;58.70;99841.41;5055716;28;1239;-57
2020/12/29 02:41:53;;;;;;;;;;;;;;;19.27;58.67;99844.91;5053753;28;1481;-57
2020/12/29 02:44:20;;;;;;;;;;;;;;;19.23;58.88;99846.22;5052335;28;1192;-57
2020/12/29 02:46:48;;;;;;;;;;;;;;;19.21;58.47;99859.78;5055535;28;1894;-56
2020/12/29 02:49:14;;;;;;;;;;;;;;;19.20;58.66;99863.47;5055236;28;1235;-56
2020/12/29 02:51:39;;;;;;;;;;;;;;;19.22;58.68;99869.53;5054875;28;1520;-56
2020/12/29 02:54:04;;;;;;;;;;;;;;;19.21;58.63;99858.97;5055276;28;1243;-56
2020/12/29 02:56:30;;;;;;;;;;;;;;;19.19;58.40;99863.63;5055466;28;1258;-56
2020/12/29 02:58:55;;;;;;;;;;;;;;;19.18;58.40;99852.09;5055073;28;1223;-56
2020/12/29 03:01:20;;;;;;;;;;;;;;;19.19;58.35;99847.56;5068031;23;2121;-48
2020/12/29 03:03:45;;;;;;;;;;;;;;;19.20;58.53;99847.41;5052424;28;1381;-48
2020/12/29 03:06:11;;;;;;;;;;;;;;;19.20;58.41;99842.03;5047232;28;1977;-48
2020/12/29 03:08:36;;;;;;;;;;;;;;;19.21;58.00;99848.22;5050733;28;1575;-50
2020/12/29 03:11:01;;;;;;;;;;;;;;;19.18;58.03;99833.31;5064509;23;3486;-56
2020/12/29 03:13:27;;;;;;;;;;;;;;;19.22;58.12;99839.22;5030097;28;1337;-57
2020/12/29 03:15:52;;;;;;;;;;;;;;;19.18;57.83;99833.31;5027903;28;1420;-57
2020/12/29 03:18:18;;;;;;;;;;;;;;;19.21;57.90;99841.03;5026918;28;1381;-56
2020/12/29 03:20:43;;;;;;;;;;;;;;;19.21;57.91;99840.19;5031593;28;1212;-56
2020/12/29 03:23:08;;;;;;;;;;;;;;;19.21;57.53;99834.84;5030821;28;1232;-56
2020/12/29 03:25:34;;;;;;;;;;;;;;;19.04;59.66;99839.28;5033065;28;1977;-56
2020/12/29 03:28:00;;;;;;;;;;;;;;;18.80;60.84;99839.94;5033264;28;777;-56
2020/12/29 03:30:25;;;;;;;;;;;;;;;18.65;61.19;99843.16;5033069;28;931;-56
2020/12/29 03:32:50;;;;;;;;;;;;;;;18.58;61.42;99842.09;5035180;28;765;-55
2020/12/29 03:35:16;;;;;;;;;;;;;;;18.55;62.11;99847.75;5034913;28;1575;-56
2020/12/29 03:37:41;;;;;;;;;;;;;;;18.56;62.08;99837.88;5034747;28;1454;-56
2020/12/29 03:40:06;;;;;;;;;;;;;;;18.56;62.37;99857.50;5035198;28;797;-56
2020/12/29 03:42:33;;;;;;;;;;;;;;;18.53;62.85;99868.50;5034988;28;809;-56
2020/12/29 03:44:58;;;;;;;;;;;;;;;18.51;63.21;99870.47;5034533;28;1431;-56
2020/12/29 03:47:23;;;;;;;;;;;;;;;18.50;63.33;99868.78;5034733;28;1941;-56
2020/12/29 03:49:49;;;;;;;;;;;;;;;18.48;63.70;99878.81;5034731;28;880;-56
2020/12/29 03:52:14;;;;;;;;;;;;;;;18.46;63.22;99870.09;5034772;28;1418;-56
2020/12/29 03:54:39;;;;;;;;;;;;;;;18.44;63.16;99885.47;5034716;28;852;-55
2020/12/29 03:57:05;;;;;;;;;;;;;;;18.43;63.47;99876.59;5034986;28;769;-56
2020/12/29 03:59:30;;;;;;;;;;;;;;;18.41;63.54;99877.75;5034801;28;1494;-56
2020/12/29 04:01:56;;;;;;;;;;;;;;;18.43;63.92;99891.81;5044518;28;1663;-56
2020/12/29 04:04:21;;;;;;;;;;;;;;;18.40;64.42;99881.41;5054519;28;833;-56
2020/12/29 04:06:46;;;;;;;;;;;;;;;18.39;64.33;99879.75;5054404;28;1949;-56
2020/12/29 04:09:12;;;;;;;;;;;;;;;18.37;64.62;99868.34;5054611;28;1011;-56
2020/12/29 04:11:37;;;;;;;;;;;;;;;18.35;64.03;99857.78;5053985;28;1426;-56
2020/12/29 04:14:02;;;;;;;;;;;;;;;18.38;64.25;99878.06;5054396;28;854;-57
2020/12/29 04:16:28;;;;;;;;;;;;;;;18.37;64.49;99879.88;5054331;28;821;-56
2020/12/29 04:18:53;;;;;;;;;;;;;;;18.35;64.59;99873.03;5054444;28;809;-56
2020/12/29 04:21:18;;;;;;;;;;;;;;;18.34;64.89;99876.69;5055753;28;819;-57
2020/12/29 04:23:44;;;;;;;;;;;;;;;18.31;64.46;99880.50;5057988;28;1549;-56
2020/12/29 04:26:10;;;;;;;;;;;;;;;18.31;64.90;99885.03;5058655;28;1913;-56
2020/12/29 04:28:35;;;;;;;;;;;;;;;18.34;64.99;99890.06;5058071;28;1504;-56
2020/12/29 04:31:01;;;;;;;;;;;;;;;18.37;64.89;99881.75;5058331;28;891;-56
2020/12/29 04:33:26;;;;;;;;;;;;;;;18.32;64.34;99867.97;5057969;28;1498;-56
2020/12/29 04:35:51;;;;;;;;;;;;;;;18.35;64.27;99865.00;5058190;28;865;-55
2020/12/29 04:38:17;;;;;;;;;;;;;;;18.31;64.91;99867.13;5058408;28;786;-56
2020/12/29 04:40:43;;;;;;;;;;;;;;;18.32;65.07;99865.28;5058124;28;860;-56
2020/12/29 04:43:08;;;;;;;;;;;;;;;18.28;64.66;99868.28;5051595;28;1505;-55
2020/12/29 04:45:34;;;;;;;;;;;;;;;18.31;65.07;99866.28;5045701;28;1953;-55
2020/12/29 04:47:59;;;;;;;;;;;;;;;18.31;64.62;99869.81;5049517;28;1101;-56
2020/12/29 04:50:26;;;;;;;;;;;;;;;18.26;64.92;99862.25;5052167;28;1188;-56
2020/12/29 04:52:56;;;;;;;;;;;;;;;18.29;65.03;99875.31;5057388;28;1219;-56
2020/12/29 04:55:27;;;;;;;;;;;;;;;18.34;64.29;99882.03;5053707;28;1144;-56
2020/12/29 04:57:52;;;;;;;;;;;;;;;18.35;66.90;99900.63;5057310;28;1473;-58
2020/12/29 05:00:18;;;;;;;;;;;;;;;18.36;68.68;99915.66;5056446;28;1215;-56
2020/12/29 05:02:45;;;;;;;;;;;;;;;18.45;66.88;99916.59;5056039;28;1420;-57
2020/12/29 05:05:10;;;;;;;;;;;;;;;18.40;68.02;99894.78;5047024;28;1234;-55
2020/12/29 05:07:37;;;;;;;;;;;;;;;18.44;67.28;99888.13;5040131;28;1901;-56
2020/12/29 05:10:04;;;;;;;;;;;;;;;18.40;67.27;99908.19;5040298;28;1247;-56
2020/12/29 05:12:30;;;;;;;;;;;;;;;18.37;66.81;99887.91;5038256;28;1372;-55
2020/12/29 05:14:55;;;;;;;;;;;;;;;18.34;67.33;99892.72;5040217;28;1211;-55
2020/12/29 05:17:22;;;;;;;;;;;;;;;18.31;66.90;99891.22;5036543;28;1199;-55
2020/12/29 05:19:47;;;;;;;;;;;;;;;18.27;66.45;99893.34;5044136;28;1180;-56
2020/12/29 05:22:13;;;;;;;;;;;;;;;18.27;66.30;99904.06;5049285;28;1116;-56
2020/12/29 05:24:45;;;;;;;;;;;;;;;18.22;66.87;99917.06;5043267;28;1243;-57
2020/12/29 05:27:11;;;;;;;;;;;;;;;18.24;67.66;99925.78;5055893;28;1971;-55
2020/12/29 05:29:36;;;;;;;;;;;;;;;18.31;67.80;99930.53;5040004;28;1160;-56
2020/12/29 05:32:02;;;;;;;;;;;;;;;18.32;68.57;99954.44;5038566;28;1190;-56
2020/12/29 05:34:28;;;;;;;;;;;;;;;18.30;67.60;99956.41;5044758;28;1266;-57
2020/12/29 05:36:54;;;;;;;;;;;;;;;18.28;68.29;99943.22;5043016;28;1115;-55
2020/12/29 05:39:20;;;;;;;;;;;;;;;18.31;67.46;99946.59;5036595;28;1179;-56
2020/12/29 05:41:47;;;;;;;;;;;;;;;18.31;67.39;99943.91;5037779;28;1175;-55
2020/12/29 05:44:14;;;;;;;;;;;;;;;18.33;67.98;99960.66;5048070;28;1175;-57
2020/12/29 05:46:39;;;;;;;;;;;;;;;18.29;67.63;99934.19;5048186;28;1951;-56
2020/12/29 05:49:05;;;;;;;;;;;;;;;18.33;67.63;99942.75;5036175;28;1227;-56
2020/12/29 05:51:32;;;;;;;;;;;;;;;18.36;67.81;99950.47;5038939;28;1183;-57
2020/12/29 05:53:59;;;;;;;;;;;;;;;18.39;68.02;99955.53;5037461;28;1224;-56
2020/12/29 05:56:26;;;;;;;;;;;;;;;18.44;67.78;99963.09;5037073;28;1282;-55
2020/12/29 05:58:51;;;;;;;;;;;;;;;18.48;67.65;99968.00;5036769;28;1192;-56
2020/12/29 06:01:17;;;;;;;;;;;;;;;18.54;67.38;99969.22;5037673;28;1500;-56
2020/12/29 06:03:43;;;;;;;;;;;;;;;18.56;66.90;99975.28;5052949;28;1089;-57
2020/12/29 06:06:12;;;;;;;;;;;;;;;18.61;66.44;99990.91;5039805;28;1957;-56
2020/12/29 06:08:41;;;;;;;;;;;;;;;18.65;66.75;99987.75;5038818;28;1133;-56
2020/12/29 06:11:13;;;;;;;;;;;;;;;18.72;66.52;99989.81;5043316;28;1152;-57
2020/12/29 06:13:38;;;;;;;;;;;;;;;18.75;66.26;99995.72;5048368;28;1173;-57
2020/12/29 06:16:04;;;;;;;;;;;;;;;18.76;66.18;100009.94;5055281;28;1183;-56
2020/12/29 06:18:36;;;;;;;;;;;;;;;18.79;66.29;99996.25;5045221;28;1092;-56
2020/12/29 06:21:03;;;;;;;;;;;;;;;18.84;66.55;100002.00;5037104;28;1275;-56
2020/12/29 06:23:29;;;;;;;;;;;;;;;18.83;66.05;99998.50;5041443;28;961;-56
2020/12/29 06:25:57;;;;;;;;;;;;;;;18.85;65.98;100012.59;5046491;28;1975;-57
2020/12/29 06:28:26;;;;;;;;;;;;;;;18.84;65.83;100018.09;5054742;28;1176;-56
2020/12/29 06:30:55;;;;;;;;;;;;;;;18.81;65.63;100023.78;5039584;28;1173;-56
2020/12/29 06:33:20;;;;;;;;;;;;;;;18.82;65.62;100014.72;5039280;28;1376;-56
2020/12/29 06:35:46;;;;;;;;;;;;;;;18.80;65.88;100020.25;5038535;28;1191;-56
2020/12/29 06:38:26;;;;;;;;;;;;;;;18.79;65.53;100025.72;5048872;28;1121;-56
2020/12/29 06:40:52;;;;;;;;;;;;;;;18.79;65.87;100044.47;5052026;28;1172;-57
2020/12/29 06:43:17;;;;;;;;;;;;;;;18.79;65.38;100048.03;5041949;28;1167;-56
2020/12/29 06:45:42;;;;;;;;;;;;;;;18.80;66.07;100032.78;5037824;28;1953;-56
2020/12/29 06:48:15;;;;;;;;;;;;;;;18.82;66.90;100041.50;5046031;28;1093;-56
2020/12/29 06:50:40;;;;;;;;;;;;;;;18.78;67.42;100040.09;5054301;28;1152;-56
2020/12/29 06:53:05;;;;;;;;;;;;;;;18.83;67.61;100061.97;5037275;28;1489;-56
2020/12/29 06:55:37;;;;;;;;;;;;;;;18.82;67.31;100041.50;5038127;28;1302;-56
2020/12/29 06:58:03;;;;;;;;;;;;;;;18.78;67.90;100056.16;5034609;28;1326;-57
2020/12/29 07:00:29;;;;;;;;;;;;;;;18.76;67.67;100068.88;5036196;28;1235;-56
2020/12/29 07:02:55;;;;;;;;;;;;;;;18.77;67.75;100066.03;5037096;28;1585;-56
2020/12/29 07:05:21;;;;;;;;;;;;;;;18.82;67.48;100070.97;5040490;28;1482;-56
2020/12/29 07:07:57;;;;;;;;;;;;;;;18.86;67.66;100075.91;5045814;28;1907;-57
2020/12/29 07:10:31;;;;;;;;;;;;;;;18.88;67.46;100084.63;5044307;28;1469;-57
2020/12/29 07:13:03;;;;;;;;;;;;;;;18.90;67.14;100065.72;5052892;28;1212;-57
2020/12/29 07:15:31;;;;;;;;;;;;;;;18.64;67.48;100038.78;5044754;28;1242;-55
2020/12/29 07:17:57;;;;;;;;;;;;;;;18.89;67.59;100077.41;5038582;28;1215;-56
2020/12/29 07:20:23;;;;;;;;;;;;;;;18.95;67.57;100086.69;5040026;28;1200;-57
2020/12/29 07:22:56;;;;;;;;;;;;;;;18.94;67.47;100099.25;5043190;28;1280;-55
2020/12/29 07:25:23;;;;;;;;;;;;;;;18.90;67.38;100103.22;5037911;28;1198;-55
2020/12/29 07:27:50;;;;;;;;;;;;;;;18.90;67.07;100100.56;5040365;23;2116;-47
2020/12/29 07:30:16;;;;;;;;;;;;;;;18.98;66.58;100089.91;5021671;28;1465;-48
2020/12/29 07:32:43;;;;;;;;;;;;;;;19.03;66.32;100114.41;5014865;28;1393;-48
2020/12/29 07:35:08;;;;;;;;;;;;;;;19.08;65.98;100103.25;5017249;28;1822;-47
2020/12/29 07:37:35;;;;;;;;;;;;;;;19.16;65.83;100089.06;5015138;28;1421;-47
2020/12/29 07:40:01;;;;;;;;;;;;;;;19.19;65.50;100096.81;5024398;28;1250;-47
2020/12/29 07:42:26;;;;;;;;;;;;;;;19.20;65.45;100102.03;5024621;28;1246;-47
2020/12/29 07:44:51;;;;;;;;;;;;;;;19.24;65.78;100105.25;5019122;28;1311;-47
2020/12/29 07:47:18;;;;;;;;;;;;;;;19.27;65.43;100105.75;5025433;28;1981;-47
2020/12/29 07:49:44;;;;;;;;;;;;;;;19.26;65.53;100104.09;5021357;28;1364;-47
2020/12/29 07:52:09;;;;;;;;;;;;;;;19.36;65.65;100120.09;5032502;28;1226;-48
2020/12/29 07:54:35;;;;;;;;;;;;;;;19.21;63.31;100121.63;5031220;28;1845;-47
2020/12/29 07:57:01;;;;;;;;;;;;;;;19.25;66.06;100112.28;5024815;28;1769;-47
2020/12/29 07:59:26;;;;;;;;;;;;;;;19.26;65.79;100108.63;5020463;28;1471;-47
2020/12/29 08:01:54;;;;;;;;;;;;;;;19.31;65.35;100117.03;5024580;28;1587;-47
2020/12/29 08:04:26;;;;;;;;;;;;;;;19.31;65.17;100113.50;5018384;28;1321;-47
2020/12/29 08:06:52;;;;;;;;;;;;;;;19.21;63.70;100110.91;5013739;28;1890;-47
2020/12/29 08:09:17;;;;;;;;;;;;;;;19.04;63.22;100113.44;5018287;28;1552;-47
2020/12/29 08:11:43;;;;;;;;;;;;;;;19.03;62.84;100102.84;5029677;28;1531;-46
2020/12/29 08:14:08;;;;;;;;;;;;;;;19.08;60.50;100111.28;5041502;28;1435;-47
2020/12/29 08:16:33;;;;;;;;;;;;;;;18.76;52.82;100112.59;5034663;28;1104;-47
2020/12/29 08:19:02;;;;;;;;;;;;;;;18.31;52.57;100124.06;5035716;28;1440;-46
2020/12/29 08:21:32;;;;;;;;;;;;;;;18.23;51.22;100134.66;5032655;28;1248;-48
2020/12/29 08:23:58;;;;;;;;;;;;;;;18.39;53.22;100126.00;5042241;28;1361;-47
2020/12/29 08:26:23;;;;;;;;;;;;;;;18.57;51.38;100136.78;5036121;28;1906;-47
2020/12/29 08:28:49;;;;;;;;;;;;;;;18.66;52.27;100120.69;5026543;28;1278;-46
2020/12/29 08:31:17;;;;;;;;;;;;;;;18.81;52.79;100126.41;5033201;28;1419;-47
2020/12/29 08:33:44;;;;;;;;;;;;;;;18.84;52.38;100125.25;5035589;28;1383;-47
2020/12/29 08:36:11;;;;;;;;;;;;;;;18.88;53.62;100122.13;5031242;28;1545;-47
2020/12/29 08:38:39;;;;;;;;;;;;;;;18.90;53.88;100127.34;5033157;28;1281;-48
2020/12/29 08:41:04;;;;;;;;;;;;;;;18.97;54.54;100130.25;5038772;28;1518;-48
2020/12/29 08:43:30;;;;;;;;;;;;;;;19.08;54.20;100122.84;5031744;28;1679;-47
2020/12/29 08:46:04;;;;;;;;;;;;;;;19.11;51.50;100120.84;5031065;28;1918;-47
2020/12/29 08:48:29;;;;;;;;;;;;;;;19.17;51.71;100129.13;5031316;28;1525;-48
2020/12/29 08:50:55;;;;;;;;;;;;;;;19.18;51.87;100121.91;5033524;28;1333;-47
2020/12/29 08:53:23;;;;;;;;;;;;;;;19.27;51.86;100129.06;5030782;28;1469;-47
2020/12/29 08:55:48;;;;;;;;;;;;;;;19.37;52.55;100115.56;5033234;28;1542;-44
2020/12/29 08:58:14;;;;;;;;;;;;;;;19.43;52.06;100115.78;5049292;28;1277;-45
2020/12/29 09:00:43;;;;;;;;;;;;;;;19.57;53.78;100121.59;5049236;28;1413;-44
2020/12/29 09:03:21;;;;;;;;;;;;;;;19.53;53.49;100120.25;5051295;28;1345;-44
2020/12/29 09:05:49;;;;;;;;;;;;;;;19.47;54.01;100122.53;5051214;28;1910;-45
2020/12/29 09:08:24;;;;;;;;;;;;;;;19.52;54.31;100121.22;5054119;28;1796;-44
2020/12/29 09:11:06;;;;;;;;;;;;;;;19.53;55.31;100133.66;5054259;28;1407;-45
2020/12/29 09:13:31;;;;;;;;;;;;;;;19.42;54.42;100111.44;5052979;28;1238;-45
2020/12/29 09:16:08;;;;;;;;;;;;;;;19.58;54.36;100117.94;5054065;28;1249;-44
2020/12/29 09:18:42;;;;;;;;;;;;;;;19.48;53.11;100118.03;5054981;28;1565;-44
2020/12/29 09:21:20;;;;;;;;;;;;;;;19.36;53.56;100113.88;5054216;28;1613;-45
2020/12/29 09:23:55;;;;;;;;;;;;;;;19.26;52.87;100108.63;5054295;28;1659;-45
2020/12/29 09:26:21;;;;;;;;;;;;;;;19.23;50.78;100125.81;5066882;28;1897;-45
2020/12/29 09:28:46;;;;;;;;;;;;;;;19.28;53.23;100123.53;5057861;28;1807;-44
2020/12/29 09:31:12;;;;;;;;;;;;;;;19.39;52.45;100130.50;5054583;28;1564;-45
2020/12/29 09:33:38;;;;;;;;;;;;;;;19.39;52.40;100116.25;5054658;28;1310;-44
2020/12/29 09:36:04;;;;;;;;;;;;;;;19.49;52.34;100133.09;5055118;28;1623;-44
2020/12/29 09:38:32;;;;;;;;;;;;;;;19.58;52.58;100124.16;5042660;28;1934;-45
2020/12/29 09:41:01;;;;;;;;;;;;;;;19.64;53.16;100133.41;5049747;28;1524;-44
2020/12/29 09:43:27;;;;;;;;;;;;;;;19.70;53.40;100123.91;5054397;28;1823;-45
2020/12/29 09:45:52;;;;;;;;;;;;;;;19.72;53.57;100119.25;5055713;28;1914;-44
2020/12/29 09:48:18;;;;;;;;;;;;;;;19.69;53.50;100125.72;5054931;28;1894;-44
2020/12/29 09:50:43;;;;;;;;;;;;;;;19.73;54.85;100124.44;5055445;28;1262;-44
2020/12/29 09:53:09;;;;;;;;;;;;;;;19.73;55.03;100132.50;5057001;28;1867;-44
2020/12/29 09:55:35;;;;;;;;;;;;;;;19.66;56.01;100121.53;5068678;28;1512;-44
2020/12/29 09:58:00;;;;;;;;;;;;;;;19.70;57.53;100138.16;5055940;28;782;-45
2020/12/29 10:00:25;;;;;;;;;;;;;;;19.63;57.42;100129.03;5057340;28;1663;-44
2020/12/29 10:02:50;;;;;;;;;;;;;;;19.55;53.69;100137.00;5055771;28;801;-44
2020/12/29 10:05:16;;;;;;;;;;;;;;;19.41;54.27;100133.88;5058704;28;1860;-44
2020/12/29 10:07:44;;;;;;;;;;;;;;;19.35;55.32;100129.13;5074093;28;1973;-44
2020/12/29 10:10:09;;;;;;;;;;;;;;;19.39;59.54;100149.28;5066627;28;1855;-44
2020/12/29 10:12:35;;;;;;;;;;;;;;;19.47;58.74;100149.34;5060447;28;1875;-44
2020/12/29 10:15:00;;;;;;;;;;;;;;;19.58;58.19;100152.81;5074570;28;1678;-44
2020/12/29 10:17:25;;;;;;;;;;;;;;;19.69;58.54;100147.19;5075522;28;797;-44
2020/12/29 10:19:50;;;;;;;;;;;;;;;20.58;56.55;100134.53;5068261;28;1698;-44
2020/12/29 10:22:16;;;;;;;;;;;;;;;20.48;57.34;100142.72;5054934;28;1709;-45
2020/12/29 10:24:41;;;;;;;;;;;;;;;20.04;58.05;100158.91;5051620;28;1768;-44
2020/12/29 10:27:06;;;;;;;;;;;;;;;19.79;60.28;100147.97;5053724;28;1964;-44
2020/12/29 10:29:31;;;;;;;;;;;;;;;19.70;61.26;100156.09;5059895;28;1882;-45
2020/12/29 10:31:57;;;;;;;;;;;;;;;19.65;61.17;100156.53;5059218;28;1688;-44
2020/12/29 10:34:22;;;;;;;;;;;;;;;19.65;60.97;100157.38;5054064;28;1658;-44
2020/12/29 10:36:47;;;;;;;;;;;;;;;19.60;62.02;100150.81;5054802;28;988;-45
2020/12/29 10:39:12;;;;;;;;;;;;;;;19.59;62.01;100151.81;5054271;28;1871;-44
2020/12/29 10:41:38;;;;;;;;;;;;;;;19.56;62.29;100149.44;5060999;28;1722;-44
2020/12/29 10:44:04;;;;;;;;;;;;;;;19.56;62.02;100154.81;5058423;28;1689;-44
2020/12/29 10:46:29;;;;;;;;;;;;;;;19.52;62.19;100165.00;5056016;28;1910;-44
2020/12/29 10:48:55;;;;;;;;;;;;;;;19.48;62.32;100156.41;5052225;28;1399;-44
2020/12/29 10:51:21;;;;;;;;;;;;;;;19.47;62.34;100154.72;5052630;28;1312;-44
2020/12/29 10:53:47;;;;;;;;;;;;;;;19.50;62.14;100171.47;5052594;28;1228;-45
2020/12/29 10:56:12;;;;;;;;;;;;;;;19.50;61.71;100160.75;5053970;28;1253;-44
2020/12/29 10:58:38;;;;;;;;;;;;;;;19.48;61.97;100168.97;5053800;28;1273;-44
2020/12/29 11:01:04;;;;;;;;;;;;;;;19.49;61.22;100167.97;5053494;28;1535;-45
2020/12/29 11:03:29;;;;;;;;;;;;;;;19.46;61.41;100158.41;5054115;28;1950;-44
2020/12/29 11:05:54;;;;;;;;;;;;;;;19.48;61.83;100175.19;5054527;28;1889;-44
2020/12/29 11:08:19;;;;;;;;;;;;;;;19.50;62.21;100164.31;5054323;28;1629;-45
2020/12/29 11:10:45;;;;;;;;;;;;;;;19.51;62.24;100182.06;5054394;28;1313;-44
2020/12/29 11:13:11;;;;;;;;;;;;;;;19.52;62.33;100182.91;5054412;28;842;-44
2020/12/29 11:15:36;;;;;;;;;;;;;;;19.45;63.00;100186.19;5054165;28;1859;-45
2020/12/29 11:18:01;;;;;;;;;;;;;;;19.51;60.84;100181.22;5053291;28;1626;-44
2020/12/29 11:20:26;;;;;;;;;;;;;;;19.46;62.34;100179.84;5053201;28;1830;-44
2020/12/29 11:22:51;;;;;;;;;;;;;;;19.47;62.44;100175.31;5057271;28;1994;-44
2020/12/29 11:25:17;;;;;;;;;;;;;;;19.47;61.71;100188.72;5062734;28;1921;-44
2020/12/29 11:27:42;;;;;;;;;;;;;;;19.38;59.88;100238.75;5053193;28;1917;-44
2020/12/29 11:30:07;;;;;;;;;;;;;;;19.43;61.07;100249.84;5057138;28;1726;-44
2020/12/29 11:32:32;;;;;;;;;;;;;;;19.35;60.51;100255.13;5049979;28;1622;-45
2020/12/29 11:34:58;;;;;;;;;;;;;;;19.37;62.63;100282.63;5051617;28;924;-45
2020/12/29 11:37:23;;;;;;;;;;;;;;;19.27;60.89;100271.13;5053395;28;2482;-45
2020/12/29 11:39:48;;;;;;;;;;;;;;;19.28;63.23;100288.91;5068256;28;1904;-45
2020/12/29 11:42:13;;;;;;;;;;;;;;;19.35;62.85;100294.50;5053688;28;1650;-45
2020/12/29 11:44:39;;;;;;;;;;;;;;;19.25;62.01;100294.56;5051110;28;1580;-44
2020/12/29 11:47:04;;;;;;;;;;;;;;;19.16;62.47;100290.06;5054374;28;1980;-44
2020/12/29 11:49:29;;;;;;;;;;;;;;;19.11;61.41;100285.19;5072039;28;2332;-44
2020/12/29 11:51:54;;;;;;;;;;;;;;;19.13;63.18;100293.06;5057492;28;1899;-44
2020/12/29 11:54:19;;;;;;;;;;;;;;;19.13;62.89;100296.59;5053231;28;1786;-44
2020/12/29 11:56:48;;;;;;;;;;;;;;;19.16;62.81;100311.53;5053146;28;1546;-44
2020/12/29 11:59:13;;;;;;;;;;;;;;;19.20;62.50;100307.56;5053648;28;1530;-44
2020/12/29 12:01:39;;;;;;;;;;;;;;;19.19;62.65;100308.56;5053031;28;1653;-44
2020/12/29 12:04:04;;;;;;;;;;;;;;;19.26;62.19;100305.16;5053585;28;1389;-44
2020/12/29 12:06:33;;;;;;;;;;;;;;;19.18;62.41;100302.38;5052207;28;1894;-45
2020/12/29 12:08:58;;;;;;;;;;;;;;;19.17;62.29;100303.34;5047526;28;1514;-44
2020/12/29 12:11:27;;;;;;;;;;;;;;;19.11;62.72;100301.25;5053411;28;1611;-44
2020/12/29 12:13:53;;;;;;;;;;;;;;;19.16;61.87;100303.47;5053336;28;1548;-44
2020/12/29 12:16:18;;;;;;;;;;;;;;;19.21;62.12;100315.44;5053303;28;1504;-44
2020/12/29 12:18:43;;;;;;;;;;;;;;;19.13;61.98;100304.63;5050887;28;1328;-44
2020/12/29 12:21:08;;;;;;;;;;;;;;;19.24;61.54;100308.97;5052637;28;1529;-44
2020/12/29 12:23:34;;;;;;;;;;;;;;;19.24;62.10;100308.97;5053040;28;1754;-44
2020/12/29 12:25:59;;;;;;;;;;;;;;;19.20;61.31;100316.47;5053241;28;1889;-44
2020/12/29 12:28:25;;;;;;;;;;;;;;;19.15;62.07;100315.22;5052430;28;1774;-44
2020/12/29 12:30:50;;;;;;;;;;;;;;;19.12;62.37;100316.34;5052478;28;1584;-44
2020/12/29 12:33:15;;;;;;;;;;;;;;;19.16;62.01;100330.28;5058303;28;1768;-44
2020/12/29 12:35:41;;;;;;;;;;;;;;;19.13;62.27;100327.91;5047880;28;1583;-45
2020/12/29 12:38:06;;;;;;;;;;;;;;;19.14;62.06;100332.25;5051974;28;1477;-44
2020/12/29 12:40:32;;;;;;;;;;;;;;;19.18;62.27;100352.44;5052577;28;1831;-44
2020/12/29 12:42:57;;;;;;;;;;;;;;;19.18;62.47;100347.06;5074131;28;865;-45
2020/12/29 12:45:22;;;;;;;;;;;;;;;19.12;61.91;100340.47;5071836;28;1710;-44
2020/12/29 12:47:47;;;;;;;;;;;;;;;19.12;62.28;100336.94;5059905;28;1917;-44